sensor_id;sensor_type;location;lat;lon;timestamp;pressure;altitude;pressure_sealevel;temperature;humidity
21100;BME280;10708;50.824;4.408;2022-10-14T00:00:30;100565.47;;;14.00;100.00
21100;BME280;10708;50.824;4.408;2022-10-14T00:05:32;100555.75;;;14.01;100.00
21100;BME280;10708;50.824;4.408;2022-10-14T00:10:37;100542.50;;;14.01;100.00
21100;BME280;10708;50.824;4.408;2022-10-14T00:15:40;100542.50;;;14.01;100.00
21100;BME280;10708;50.824;4.408;2022-10-14T00:20:42;100543.59;;;13.97;100.00
21100;BME280;10708;50.824;4.408;2022-10-14T00:25:46;100533.94;;;13.96;100.00
21100;BME280;10708;50.824;4.408;2022-10-14T00:30:54;100533.78;;;13.99;100.00
21100;BME280;10708;50.824;4.408;2022-10-14T00:35:59;100536.28;;;14.02;100.00
21100;BME280;10708;50.824;4.408;2022-10-14T00:41:03;100527.41;;;14.03;100.00
21100;BME280;10708;50.824;4.408;2022-10-14T00:46:08;100531.78;;;14.04;100.00
21100;BME280;10708;50.824;4.408;2022-10-14T00:51:12;100523.91;;;14.02;100.00
21100;BME280;10708;50.824;4.408;2022-10-14T00:56:19;100514.94;;;14.05;100.00
21100;BME280;10708;50.824;4.408;2022-10-14T01:01:23;100527.25;;;14.06;100.00
21100;BME280;10708;50.824;4.408;2022-10-14T01:06:39;100522.81;;;14.07;100.00
21100;BME280;10708;50.824;4.408;2022-10-14T01:11:49;100519.22;;;14.08;100.00
21100;BME280;10708;50.824;4.408;2022-10-14T01:17:02;100513.91;;;14.08;100.00
21100;BME280;10708;50.824;4.408;2022-10-14T01:22:13;100509.41;;;14.10;100.00
21100;BME280;10708;50.824;4.408;2022-10-14T01:33:07;100508.53;;;14.09;100.00
21100;BME280;10708;50.824;4.408;2022-10-14T01:38:13;100495.31;;;14.09;100.00
21100;BME280;10708;50.824;4.408;2022-10-14T01:43:20;100502.38;;;14.09;100.00
21100;BME280;10708;50.824;4.408;2022-10-14T01:48:29;100494.44;;;14.09;100.00
21100;BME280;10708;50.824;4.408;2022-10-14T01:53:37;100486.34;;;14.12;100.00
21100;BME280;10708;50.824;4.408;2022-10-14T01:58:41;100481.06;;;14.12;100.00
21100;BME280;10708;50.824;4.408;2022-10-14T02:03:46;100492.34;;;14.15;100.00
21100;BME280;10708;50.824;4.408;2022-10-14T02:09:01;100477.47;;;14.13;100.00
21100;BME280;10708;50.824;4.408;2022-10-14T02:14:15;100467.88;;;14.10;100.00
21100;BME280;10708;50.824;4.408;2022-10-14T02:19:26;100460.94;;;14.08;100.00
21100;BME280;10708;50.824;4.408;2022-10-14T02:24:31;100462.78;;;14.07;100.00
21100;BME280;10708;50.824;4.408;2022-10-14T02:29:35;100443.28;;;14.08;100.00
21100;BME280;10708;50.824;4.408;2022-10-14T02:34:41;100438.84;;;14.09;100.00
21100;BME280;10708;50.824;4.408;2022-10-14T02:39:47;100430.03;;;14.08;100.00
21100;BME280;10708;50.824;4.408;2022-10-14T02:44:53;100421.22;;;14.08;100.00
21100;BME280;10708;50.824;4.408;2022-10-14T02:49:57;100415.84;;;14.09;100.00
21100;BME280;10708;50.824;4.408;2022-10-14T02:54:59;100416.72;;;14.10;100.00
21100;BME280;10708;50.824;4.408;2022-10-14T03:00:03;100408.84;;;14.08;100.00
21100;BME280;10708;50.824;4.408;2022-10-14T03:05:07;100403.47;;;14.10;100.00
21100;BME280;10708;50.824;4.408;2022-10-14T03:10:09;100407.91;;;14.09;100.00
21100;BME280;10708;50.824;4.408;2022-10-14T03:15:12;100405.25;;;14.09;100.00
21100;BME280;10708;50.824;4.408;2022-10-14T03:20:15;100406.91;;;14.12;100.00
21100;BME280;10708;50.824;4.408;2022-10-14T03:25:18;100400.69;;;14.13;100.00
21100;BME280;10708;50.824;4.408;2022-10-14T03:30:20;100395.53;;;14.10;100.00
21100;BME280;10708;50.824;4.408;2022-10-14T03:35:23;100397.31;;;14.09;100.00
21100;BME280;10708;50.824;4.408;2022-10-14T03:40:25;100389.47;;;14.08;100.00
21100;BME280;10708;50.824;4.408;2022-10-14T03:45:27;100378.13;;;14.06;100.00
21100;BME280;10708;50.824;4.408;2022-10-14T03:50:31;100381.78;;;14.03;100.00
21100;BME280;10708;50.824;4.408;2022-10-14T03:55:33;100368.69;;;14.00;100.00
21100;BME280;10708;50.824;4.408;2022-10-14T04:00:35;100374.06;;;13.98;100.00
21100;BME280;10708;50.824;4.408;2022-10-14T04:05:38;100369.81;;;13.96;100.00
21100;BME280;10708;50.824;4.408;2022-10-14T04:10:41;100361.84;;;13.96;100.00
21100;BME280;10708;50.824;4.408;2022-10-14T04:15:42;100371.53;;;13.97;100.00
21100;BME280;10708;50.824;4.408;2022-10-14T04:20:46;100374.16;;;13.97;100.00
21100;BME280;10708;50.824;4.408;2022-10-14T04:25:48;100363.47;;;13.98;100.00
21100;BME280;10708;50.824;4.408;2022-10-14T04:30:50;100363.31;;;14.01;100.00
21100;BME280;10708;50.824;4.408;2022-10-14T04:35:57;100360.59;;;14.03;100.00
21100;BME280;10708;50.824;4.408;2022-10-14T04:40:59;100346.34;;;14.06;100.00
21100;BME280;10708;50.824;4.408;2022-10-14T04:46:02;100345.56;;;14.03;100.00
21100;BME280;10708;50.824;4.408;2022-10-14T04:51:06;100349.00;;;14.06;100.00
21100;BME280;10708;50.824;4.408;2022-10-14T04:56:08;100332.31;;;14.03;100.00
21100;BME280;10708;50.824;4.408;2022-10-14T05:01:11;100331.19;;;14.08;100.00
21100;BME280;10708;50.824;4.408;2022-10-14T05:06:15;100322.50;;;14.06;100.00
21100;BME280;10708;50.824;4.408;2022-10-14T05:11:17;100318.94;;;14.07;100.00
21100;BME280;10708;50.824;4.408;2022-10-14T05:16:19;100316.44;;;14.03;100.00
21100;BME280;10708;50.824;4.408;2022-10-14T05:21:22;100310.50;;;13.98;100.00
21100;BME280;10708;50.824;4.408;2022-10-14T05:26:24;100309.84;;;13.95;100.00
21100;BME280;10708;50.824;4.408;2022-10-14T05:31:27;100309.91;;;13.93;100.00
21100;BME280;10708;50.824;4.408;2022-10-14T05:36:31;100301.13;;;13.93;100.00
21100;BME280;10708;50.824;4.408;2022-10-14T05:41:33;100288.91;;;13.90;100.00
21100;BME280;10708;50.824;4.408;2022-10-14T05:46:35;100290.75;;;13.88;100.00
21100;BME280;10708;50.824;4.408;2022-10-14T05:51:38;100281.03;;;13.89;100.00
21100;BME280;10708;50.824;4.408;2022-10-14T05:56:40;100272.25;;;13.88;100.00
21100;BME280;10708;50.824;4.408;2022-10-14T06:01:43;100270.56;;;13.87;100.00
21100;BME280;10708;50.824;4.408;2022-10-14T06:06:46;100264.28;;;13.88;100.00
21100;BME280;10708;50.824;4.408;2022-10-14T06:11:49;100269.50;;;13.90;100.00
21100;BME280;10708;50.824;4.408;2022-10-14T06:16:51;100262.44;;;13.90;100.00
21100;BME280;10708;50.824;4.408;2022-10-14T06:21:54;100264.22;;;13.90;100.00
21100;BME280;10708;50.824;4.408;2022-10-14T06:27:00;100265.84;;;13.92;100.00
21100;BME280;10708;50.824;4.408;2022-10-14T06:32:03;100265.69;;;13.95;100.00
21100;BME280;10708;50.824;4.408;2022-10-14T06:37:06;100256.81;;;13.96;100.00
21100;BME280;10708;50.824;4.408;2022-10-14T06:42:09;100251.41;;;13.98;100.00
21100;BME280;10708;50.824;4.408;2022-10-14T06:47:11;100253.91;;;14.01;100.00
21100;BME280;10708;50.824;4.408;2022-10-14T06:52:15;100242.38;;;14.02;100.00
21100;BME280;10708;50.824;4.408;2022-10-14T06:57:17;100239.66;;;14.03;100.00
21100;BME280;10708;50.824;4.408;2022-10-14T07:02:19;100241.28;;;14.06;100.00
21100;BME280;10708;50.824;4.408;2022-10-14T07:07:23;100240.22;;;14.09;100.00
21100;BME280;10708;50.824;4.408;2022-10-14T07:12:25;100234.78;;;14.12;100.00
21100;BME280;10708;50.824;4.408;2022-10-14T07:17:27;100246.66;;;14.20;100.00
21100;BME280;10708;50.824;4.408;2022-10-14T07:22:31;100242.06;;;14.24;100.00
21100;BME280;10708;50.824;4.408;2022-10-14T07:27:37;100238.97;;;14.31;100.00
21100;BME280;10708;50.824;4.408;2022-10-14T07:32:39;100233.41;;;14.36;100.00
21100;BME280;10708;50.824;4.408;2022-10-14T07:37:43;100241.25;;;14.37;100.00
21100;BME280;10708;50.824;4.408;2022-10-14T07:42:45;100251.63;;;14.42;100.00
21100;BME280;10708;50.824;4.408;2022-10-14T07:47:49;100247.97;;;14.45;100.00
21100;BME280;10708;50.824;4.408;2022-10-14T07:52:53;100253.06;;;14.48;100.00
21100;BME280;10708;50.824;4.408;2022-10-14T07:57:55;100243.09;;;14.53;100.00
21100;BME280;10708;50.824;4.408;2022-10-14T08:02:57;100243.16;;;14.51;100.00
21100;BME280;10708;50.824;4.408;2022-10-14T08:08:01;100241.22;;;14.55;100.00
21100;BME280;10708;50.824;4.408;2022-10-14T08:13:04;100244.44;;;14.60;100.00
21100;BME280;10708;50.824;4.408;2022-10-14T08:18:07;100237.25;;;14.62;100.00
21100;BME280;10708;50.824;4.408;2022-10-14T08:23:11;100238.53;;;14.70;100.00
21100;BME280;10708;50.824;4.408;2022-10-14T08:28:14;100241.00;;;14.73;100.00
21100;BME280;10708;50.824;4.408;2022-10-14T08:33:16;100232.03;;;14.76;100.00
21100;BME280;10708;50.824;4.408;2022-10-14T08:38:22;100242.50;;;14.77;100.00
21100;BME280;10708;50.824;4.408;2022-10-14T08:43:30;100231.75;;;14.81;100.00
21100;BME280;10708;50.824;4.408;2022-10-14T08:48:33;100219.16;;;14.84;100.00
21100;BME280;10708;50.824;4.408;2022-10-14T08:53:40;100229.69;;;14.86;100.00
21100;BME280;10708;50.824;4.408;2022-10-14T08:58:46;100224.31;;;14.87;100.00
21100;BME280;10708;50.824;4.408;2022-10-14T09:03:50;100217.84;;;14.91;100.00
21100;BME280;10708;50.824;4.408;2022-10-14T09:08:59;100222.69;;;14.99;100.00
21100;BME280;10708;50.824;4.408;2022-10-14T09:14:07;100228.69;;;15.02;100.00
21100;BME280;10708;50.824;4.408;2022-10-14T09:19:14;100232.88;;;15.06;100.00
21100;BME280;10708;50.824;4.408;2022-10-14T09:24:26;100230.88;;;15.10;100.00
21100;BME280;10708;50.824;4.408;2022-10-14T09:29:31;100233.53;;;15.10;100.00
21100;BME280;10708;50.824;4.408;2022-10-14T09:34:36;100225.03;;;15.19;100.00
21100;BME280;10708;50.824;4.408;2022-10-14T09:39:40;100211.78;;;15.33;100.00
21100;BME280;10708;50.824;4.408;2022-10-14T09:44:42;100215.28;;;15.48;100.00
21100;BME280;10708;50.824;4.408;2022-10-14T09:49:46;100215.59;;;15.58;100.00
21100;BME280;10708;50.824;4.408;2022-10-14T09:54:54;100218.00;;;15.76;100.00
21100;BME280;10708;50.824;4.408;2022-10-14T09:59:58;100214.19;;;15.80;100.00
21100;BME280;10708;50.824;4.408;2022-10-14T10:05:20;100208.03;;;15.80;100.00
21100;BME280;10708;50.824;4.408;2022-10-14T10:10:25;100205.56;;;15.63;100.00
21100;BME280;10708;50.824;4.408;2022-10-14T10:15:30;100203.78;;;15.63;100.00
21100;BME280;10708;50.824;4.408;2022-10-14T10:20:32;100205.97;;;15.57;100.00
21100;BME280;10708;50.824;4.408;2022-10-14T10:25:37;100205.34;;;15.37;100.00
21100;BME280;10708;50.824;4.408;2022-10-14T10:30:43;100223.34;;;15.32;100.00
21100;BME280;10708;50.824;4.408;2022-10-14T10:36:06;100212.81;;;15.17;100.00
21100;BME280;10708;50.824;4.408;2022-10-14T10:41:23;100227.03;;;15.16;100.00
21100;BME280;10708;50.824;4.408;2022-10-14T10:46:47;100219.91;;;15.16;100.00
21100;BME280;10708;50.824;4.408;2022-10-14T10:51:59;100222.44;;;15.18;100.00
21100;BME280;10708;50.824;4.408;2022-10-14T10:57:23;100224.84;;;15.22;100.00
21100;BME280;10708;50.824;4.408;2022-10-14T11:02:46;100217.34;;;15.29;100.00
21100;BME280;10708;50.824;4.408;2022-10-14T11:07:56;100201.28;;;15.46;100.00
21100;BME280;10708;50.824;4.408;2022-10-14T11:13:21;100176.34;;;15.48;100.00
21100;BME280;10708;50.824;4.408;2022-10-14T11:18:33;100174.34;;;15.38;100.00
21100;BME280;10708;50.824;4.408;2022-10-14T11:23:45;100167.16;;;15.26;100.00
21100;BME280;10708;50.824;4.408;2022-10-14T11:28:57;100179.38;;;15.28;100.00
21100;BME280;10708;50.824;4.408;2022-10-14T11:34:12;100167.16;;;15.26;100.00
21100;BME280;10708;50.824;4.408;2022-10-14T11:39:25;100151.69;;;15.18;100.00
21100;BME280;10708;50.824;4.408;2022-10-14T11:44:34;100148.22;;;15.32;100.00
21100;BME280;10708;50.824;4.408;2022-10-14T11:49:43;100151.72;;;15.46;100.00
21100;BME280;10708;50.824;4.408;2022-10-14T11:54:49;100143.19;;;15.70;100.00
21100;BME280;10708;50.824;4.408;2022-10-14T11:59:59;100133.31;;;15.86;100.00
21100;BME280;10708;50.824;4.408;2022-10-14T12:05:08;100146.78;;;16.10;100.00
21100;BME280;10708;50.824;4.408;2022-10-14T12:10:18;100137.09;;;16.09;100.00
21100;BME280;10708;50.824;4.408;2022-10-14T12:15:25;100113.81;;;16.27;100.00
21100;BME280;10708;50.824;4.408;2022-10-14T12:20:34;100117.56;;;16.49;100.00
21100;BME280;10708;50.824;4.408;2022-10-14T12:25:44;100121.41;;;16.58;100.00
21100;BME280;10708;50.824;4.408;2022-10-14T12:30:51;100125.03;;;16.44;100.00
21100;BME280;10708;50.824;4.408;2022-10-14T12:35:55;100109.69;;;16.35;100.00
21100;BME280;10708;50.824;4.408;2022-10-14T12:41:32;100116.59;;;16.38;100.00
21100;BME280;10708;50.824;4.408;2022-10-14T12:46:42;100105.81;;;16.53;100.00
21100;BME280;10708;50.824;4.408;2022-10-14T12:51:54;100107.59;;;16.53;100.00
21100;BME280;10708;50.824;4.408;2022-10-14T12:57:20;100108.19;;;16.71;100.00
21100;BME280;10708;50.824;4.408;2022-10-14T13:02:31;100099.50;;;16.94;100.00
21100;BME280;10708;50.824;4.408;2022-10-14T13:07:40;100087.66;;;16.98;100.00
21100;BME280;10708;50.824;4.408;2022-10-14T13:12:42;100074.81;;;16.92;100.00
21100;BME280;10708;50.824;4.408;2022-10-14T13:17:46;100082.13;;;17.14;100.00
21100;BME280;10708;50.824;4.408;2022-10-14T13:22:49;100074.47;;;17.09;100.00
21100;BME280;10708;50.824;4.408;2022-10-14T13:28:13;100070.34;;;17.05;100.00
21100;BME280;10708;50.824;4.408;2022-10-14T13:33:22;100055.94;;;17.08;100.00
21100;BME280;10708;50.824;4.408;2022-10-14T13:38:26;100083.00;;;17.02;100.00
21100;BME280;10708;50.824;4.408;2022-10-14T13:43:34;100065.66;;;16.96;100.00
21100;BME280;10708;50.824;4.408;2022-10-14T13:48:42;100068.19;;;16.97;100.00
21100;BME280;10708;50.824;4.408;2022-10-14T13:53:49;100060.00;;;16.88;100.00
21100;BME280;10708;50.824;4.408;2022-10-14T13:58:52;100051.81;;;17.04;100.00
21100;BME280;10708;50.824;4.408;2022-10-14T14:03:57;100055.53;;;16.88;100.00
21100;BME280;10708;50.824;4.408;2022-10-14T14:09:02;100060.09;;;16.99;100.00
21100;BME280;10708;50.824;4.408;2022-10-14T14:14:07;100055.03;;;16.96;100.00
21100;BME280;10708;50.824;4.408;2022-10-14T14:19:21;100052.66;;;16.91;100.00
21100;BME280;10708;50.824;4.408;2022-10-14T14:24:25;100057.03;;;16.67;100.00
21100;BME280;10708;50.824;4.408;2022-10-14T14:29:36;100060.44;;;16.69;100.00
21100;BME280;10708;50.824;4.408;2022-10-14T14:34:42;100038.91;;;16.59;100.00
21100;BME280;10708;50.824;4.408;2022-10-14T14:39:54;100035.19;;;16.49;100.00
21100;BME280;10708;50.824;4.408;2022-10-14T14:45:00;100053.16;;;16.46;100.00
21100;BME280;10708;50.824;4.408;2022-10-14T14:50:06;100046.47;;;16.53;100.00
21100;BME280;10708;50.824;4.408;2022-10-14T14:55:34;100042.09;;;16.52;100.00
21100;BME280;10708;50.824;4.408;2022-10-14T15:00:42;100037.19;;;16.33;100.00
21100;BME280;10708;50.824;4.408;2022-10-14T15:05:50;100040.28;;;16.40;100.00
21100;BME280;10708;50.824;4.408;2022-10-14T15:10:55;100004.56;;;16.31;100.00
21100;BME280;10708;50.824;4.408;2022-10-14T15:15:58;100008.91;;;16.32;100.00
21100;BME280;10708;50.824;4.408;2022-10-14T15:21:15;100004.75;;;16.28;100.00
21100;BME280;10708;50.824;4.408;2022-10-14T15:26:23;99999.56;;;16.27;100.00
21100;BME280;10708;50.824;4.408;2022-10-14T15:31:29;100001.69;;;16.21;100.00
21100;BME280;10708;50.824;4.408;2022-10-14T15:36:33;99990.53;;;16.16;100.00
21100;BME280;10708;50.824;4.408;2022-10-14T15:41:35;99989.00;;;16.12;100.00
21100;BME280;10708;50.824;4.408;2022-10-14T15:46:40;99985.09;;;16.05;100.00
21100;BME280;10708;50.824;4.408;2022-10-14T15:52:01;99996.03;;;16.13;100.00
21100;BME280;10708;50.824;4.408;2022-10-14T15:57:04;100008.22;;;16.03;100.00
21100;BME280;10708;50.824;4.408;2022-10-14T16:02:09;99989.22;;;15.97;100.00
21100;BME280;10708;50.824;4.408;2022-10-14T16:07:16;99995.00;;;15.89;100.00
21100;BME280;10708;50.824;4.408;2022-10-14T16:12:18;99982.69;;;15.88;100.00
21100;BME280;10708;50.824;4.408;2022-10-14T16:17:20;99982.66;;;15.75;100.00
21100;BME280;10708;50.824;4.408;2022-10-14T16:22:24;99980.75;;;15.77;100.00
21100;BME280;10708;50.824;4.408;2022-10-14T16:27:27;99967.22;;;15.68;100.00
21100;BME280;10708;50.824;4.408;2022-10-14T16:32:29;99966.97;;;15.58;100.00
21100;BME280;10708;50.824;4.408;2022-10-14T16:37:32;99958.88;;;15.47;100.00
21100;BME280;10708;50.824;4.408;2022-10-14T16:42:35;99971.84;;;15.37;100.00
21100;BME280;10708;50.824;4.408;2022-10-14T16:47:38;99965.66;;;15.24;100.00
21100;BME280;10708;50.824;4.408;2022-10-14T16:52:44;99962.84;;;15.13;100.00
21100;BME280;10708;50.824;4.408;2022-10-14T16:58:04;99953.75;;;15.03;100.00
21100;BME280;10708;50.824;4.408;2022-10-14T17:03:06;99959.84;;;14.91;100.00
21100;BME280;10708;50.824;4.408;2022-10-14T17:08:10;99956.16;;;14.79;100.00
21100;BME280;10708;50.824;4.408;2022-10-14T17:13:12;99963.06;;;14.67;100.00
21100;BME280;10708;50.824;4.408;2022-10-14T17:18:15;99965.44;;;14.58;100.00
21100;BME280;10708;50.824;4.408;2022-10-14T17:23:19;99960.59;;;14.50;100.00
21100;BME280;10708;50.824;4.408;2022-10-14T17:28:21;99969.03;;;14.43;100.00
21100;BME280;10708;50.824;4.408;2022-10-14T17:33:24;99953.38;;;14.38;100.00
21100;BME280;10708;50.824;4.408;2022-10-14T17:38:29;99951.09;;;14.32;100.00
21100;BME280;10708;50.824;4.408;2022-10-14T17:43:33;99972.28;;;14.32;100.00
21100;BME280;10708;50.824;4.408;2022-10-14T17:48:41;99976.47;;;14.36;100.00
21100;BME280;10708;50.824;4.408;2022-10-14T17:53:47;99976.13;;;14.42;100.00
21100;BME280;10708;50.824;4.408;2022-10-14T17:58:51;99961.63;;;14.48;100.00
21100;BME280;10708;50.824;4.408;2022-10-14T18:03:55;99969.31;;;14.52;100.00
21100;BME280;10708;50.824;4.408;2022-10-14T18:09:00;99968.28;;;14.55;100.00
21100;BME280;10708;50.824;4.408;2022-10-14T18:14:02;99976.88;;;14.58;100.00
21100;BME280;10708;50.824;4.408;2022-10-14T18:19:16;99977.44;;;14.49;100.00
21100;BME280;10708;50.824;4.408;2022-10-14T18:24:20;99980.19;;;14.48;100.00
21100;BME280;10708;50.824;4.408;2022-10-14T18:29:23;99978.19;;;14.37;100.00
21100;BME280;10708;50.824;4.408;2022-10-14T18:34:25;99971.34;;;14.33;100.00
21100;BME280;10708;50.824;4.408;2022-10-14T18:39:29;99965.28;;;14.31;100.00
21100;BME280;10708;50.824;4.408;2022-10-14T18:44:31;99961.13;;;14.27;100.00
21100;BME280;10708;50.824;4.408;2022-10-14T18:49:33;99948.63;;;14.29;100.00
21100;BME280;10708;50.824;4.408;2022-10-14T18:54:37;99957.63;;;14.26;100.00
21100;BME280;10708;50.824;4.408;2022-10-14T18:59:40;99938.34;;;14.24;100.00
21100;BME280;10708;50.824;4.408;2022-10-14T19:04:42;99940.13;;;14.24;100.00
21100;BME280;10708;50.824;4.408;2022-10-14T19:09:46;99938.59;;;14.20;100.00
21100;BME280;10708;50.824;4.408;2022-10-14T19:14:48;99928.94;;;14.19;100.00
21100;BME280;10708;50.824;4.408;2022-10-14T19:19:50;99923.94;;;14.14;100.00
21100;BME280;10708;50.824;4.408;2022-10-14T19:24:54;99911.81;;;14.10;100.00
21100;BME280;10708;50.824;4.408;2022-10-14T19:29:56;99921.66;;;14.08;100.00
21100;BME280;10708;50.824;4.408;2022-10-14T19:34:59;99913.91;;;14.05;100.00
21100;BME280;10708;50.824;4.408;2022-10-14T19:40:03;99917.31;;;14.07;100.00
21100;BME280;10708;50.824;4.408;2022-10-14T19:45:06;99916.34;;;14.08;100.00
21100;BME280;10708;50.824;4.408;2022-10-14T19:50:09;99931.28;;;14.09;100.00
21100;BME280;10708;50.824;4.408;2022-10-14T19:55:13;99928.84;;;14.06;100.00
21100;BME280;10708;50.824;4.408;2022-10-14T20:00:17;99919.13;;;14.07;100.00
21100;BME280;10708;50.824;4.408;2022-10-14T20:05:19;99914.69;;;14.07;100.00
21100;BME280;10708;50.824;4.408;2022-10-14T20:10:24;99890.00;;;14.07;100.00
21100;BME280;10708;50.824;4.408;2022-10-14T21:04:05;99932.25;;;14.08;100.00
21100;BME280;10708;50.824;4.408;2022-10-14T21:09:11;99930.75;;;14.04;100.00
21100;BME280;10708;50.824;4.408;2022-10-14T21:19:38;99931.28;;;14.09;100.00
21100;BME280;10708;50.824;4.408;2022-10-14T21:24:43;99932.81;;;14.13;100.00
21100;BME280;10708;50.824;4.408;2022-10-14T21:29:47;99921.56;;;14.10;100.00
21100;BME280;10708;50.824;4.408;2022-10-14T21:40:01;99923.84;;;14.16;100.00
21100;BME280;10708;50.824;4.408;2022-10-14T21:45:04;99924.13;;;14.11;100.00
21100;BME280;10708;50.824;4.408;2022-10-14T21:50:07;99923.09;;;14.14;100.00
21100;BME280;10708;50.824;4.408;2022-10-14T21:55:11;99930.88;;;14.17;100.00
21100;BME280;10708;50.824;4.408;2022-10-14T22:00:13;99921.94;;;14.18;100.00
21100;BME280;10708;50.824;4.408;2022-10-14T22:05:16;99908.81;;;14.16;100.00
21100;BME280;10708;50.824;4.408;2022-10-14T22:10:22;99895.47;;;14.18;100.00
21100;BME280;10708;50.824;4.408;2022-10-14T22:15:43;99885.94;;;14.15;100.00
21100;BME280;10708;50.824;4.408;2022-10-14T22:20:46;99894.81;;;14.14;100.00
21100;BME280;10708;50.824;4.408;2022-10-14T22:25:50;99889.69;;;14.11;100.00
21100;BME280;10708;50.824;4.408;2022-10-14T22:30:52;99894.06;;;14.12;100.00
21100;BME280;10708;50.824;4.408;2022-10-14T22:36:04;99902.94;;;14.11;100.00
21100;BME280;10708;50.824;4.408;2022-10-14T22:41:09;99895.84;;;14.12;100.00
21100;BME280;10708;50.824;4.408;2022-10-14T22:46:13;99893.38;;;14.09;100.00
21100;BME280;10708;50.824;4.408;2022-10-14T22:51:17;99897.81;;;14.08;100.00
21100;BME280;10708;50.824;4.408;2022-10-14T22:56:23;99886.59;;;14.04;100.00
21100;BME280;10708;50.824;4.408;2022-10-14T23:01:27;99896.50;;;14.01;100.00
21100;BME280;10708;50.824;4.408;2022-10-14T23:06:31;99879.66;;;14.02;100.00
21100;BME280;10708;50.824;4.408;2022-10-14T23:11:34;99875.50;;;13.98;100.00
21100;BME280;10708;50.824;4.408;2022-10-14T23:16:37;99889.69;;;13.97;100.00
21100;BME280;10708;50.824;4.408;2022-10-14T23:21:41;99883.63;;;13.95;100.00
21100;BME280;10708;50.824;4.408;2022-10-14T23:26:45;99881.25;;;13.90;100.00
21100;BME280;10708;50.824;4.408;2022-10-14T23:31:47;99873.69;;;13.84;100.00
21100;BME280;10708;50.824;4.408;2022-10-14T23:36:50;99881.34;;;13.75;100.00
21100;BME280;10708;50.824;4.408;2022-10-14T23:41:53;99879.22;;;13.65;100.00
21100;BME280;10708;50.824;4.408;2022-10-14T23:46:56;99883.16;;;13.58;100.00
21100;BME280;10708;50.824;4.408;2022-10-14T23:51:58;99887.97;;;13.52;100.00
21100;BME280;10708;50.824;4.408;2022-10-14T23:57:02;99893.63;;;13.46;100.00
